sensor_id;sensor_type;location;lat;lon;timestamp;temperature;humidity
48806;DHT22;34625;47.176;27.548;2022-09-12T00:01:06;27.20;57.70
48806;DHT22;34625;47.176;27.548;2022-09-12T00:03:33;27.10;57.60
48806;DHT22;34625;47.176;27.548;2022-09-12T00:05:59;27.10;57.80
48806;DHT22;34625;47.176;27.548;2022-09-12T00:08:25;27.10;57.90
48806;DHT22;34625;47.176;27.548;2022-09-12T00:10:52;27.00;57.90
48806;DHT22;34625;47.176;27.548;2022-09-12T00:13:17;27.10;57.90
48806;DHT22;34625;47.176;27.548;2022-09-12T00:15:44;27.20;57.90
48806;DHT22;34625;47.176;27.548;2022-09-12T00:18:13;27.20;57.80
48806;DHT22;34625;47.176;27.548;2022-09-12T00:20:42;27.20;57.70
48806;DHT22;34625;47.176;27.548;2022-09-12T00:23:08;27.20;57.80
48806;DHT22;34625;47.176;27.548;2022-09-12T00:25:41;27.10;57.80
48806;DHT22;34625;47.176;27.548;2022-09-12T00:28:07;27.10;57.80
48806;DHT22;34625;47.176;27.548;2022-09-12T00:30:33;27.10;57.90
48806;DHT22;34625;47.176;27.548;2022-09-12T00:32:59;27.10;57.90
48806;DHT22;34625;47.176;27.548;2022-09-12T00:35:25;27.10;57.90
48806;DHT22;34625;47.176;27.548;2022-09-12T00:37:51;27.20;57.90
48806;DHT22;34625;47.176;27.548;2022-09-12T00:40:17;27.10;57.90
48806;DHT22;34625;47.176;27.548;2022-09-12T00:42:43;27.10;57.80
48806;DHT22;34625;47.176;27.548;2022-09-12T00:45:22;27.00;57.70
48806;DHT22;34625;47.176;27.548;2022-09-12T00:47:48;27.20;57.70
48806;DHT22;34625;47.176;27.548;2022-09-12T00:50:15;27.20;57.80
48806;DHT22;34625;47.176;27.548;2022-09-12T00:52:43;27.10;57.80
48806;DHT22;34625;47.176;27.548;2022-09-12T00:55:31;27.10;57.80
48806;DHT22;34625;47.176;27.548;2022-09-12T00:58:13;26.90;57.30
48806;DHT22;34625;47.176;27.548;2022-09-12T01:00:41;26.90;57.30
48806;DHT22;34625;47.176;27.548;2022-09-12T01:03:11;26.90;57.50
48806;DHT22;34625;47.176;27.548;2022-09-12T01:05:42;26.90;57.50
48806;DHT22;34625;47.176;27.548;2022-09-12T01:08:11;26.90;57.60
48806;DHT22;34625;47.176;27.548;2022-09-12T01:10:39;26.90;57.70
48806;DHT22;34625;47.176;27.548;2022-09-12T01:13:08;26.80;57.70
48806;DHT22;34625;47.176;27.548;2022-09-12T01:15:36;26.90;57.70
48806;DHT22;34625;47.176;27.548;2022-09-12T01:29:26;26.80;57.60
48806;DHT22;34625;47.176;27.548;2022-09-12T01:34:48;27.00;58.10
48806;DHT22;34625;47.176;27.548;2022-09-12T01:40:08;27.00;58.20
48806;DHT22;34625;47.176;27.548;2022-09-12T01:45:25;26.90;57.60
48806;DHT22;34625;47.176;27.548;2022-09-12T01:50:37;26.80;57.60
48806;DHT22;34625;47.176;27.548;2022-09-12T01:53:14;26.90;57.70
48806;DHT22;34625;47.176;27.548;2022-09-12T01:55:47;26.80;57.70
48806;DHT22;34625;47.176;27.548;2022-09-12T01:58:21;26.80;57.70
48806;DHT22;34625;47.176;27.548;2022-09-12T02:01:05;26.80;57.70
48806;DHT22;34625;47.176;27.548;2022-09-12T02:03:40;26.70;57.80
48806;DHT22;34625;47.176;27.548;2022-09-12T02:06:26;26.70;57.90
48806;DHT22;34625;47.176;27.548;2022-09-12T02:08:59;26.60;58.00
48806;DHT22;34625;47.176;27.548;2022-09-12T02:11:28;26.70;58.00
48806;DHT22;34625;47.176;27.548;2022-09-12T02:14:08;26.70;58.00
48806;DHT22;34625;47.176;27.548;2022-09-12T02:19:33;26.70;57.90
48806;DHT22;34625;47.176;27.548;2022-09-12T02:22:02;26.70;57.90
48806;DHT22;34625;47.176;27.548;2022-09-12T02:24:36;26.70;57.90
48806;DHT22;34625;47.176;27.548;2022-09-12T02:27:10;26.80;57.90
48806;DHT22;34625;47.176;27.548;2022-09-12T02:29:37;26.70;57.90
48806;DHT22;34625;47.176;27.548;2022-09-12T02:40:16;26.80;57.80
48806;DHT22;34625;47.176;27.548;2022-09-12T02:42:43;26.70;57.80
48806;DHT22;34625;47.176;27.548;2022-09-12T02:45:10;26.70;57.80
48806;DHT22;34625;47.176;27.548;2022-09-12T02:47:46;26.70;57.90
48806;DHT22;34625;47.176;27.548;2022-09-12T02:50:14;26.70;57.90
48806;DHT22;34625;47.176;27.548;2022-09-12T02:52:41;26.70;57.90
48806;DHT22;34625;47.176;27.548;2022-09-12T02:55:08;26.50;57.90
48806;DHT22;34625;47.176;27.548;2022-09-12T02:57:36;26.70;57.80
48806;DHT22;34625;47.176;27.548;2022-09-12T03:00:04;26.60;57.90
48806;DHT22;34625;47.176;27.548;2022-09-12T03:05:36;26.60;58.10
48806;DHT22;34625;47.176;27.548;2022-09-12T03:14:03;26.60;58.10
48806;DHT22;34625;47.176;27.548;2022-09-12T03:22:22;26.60;58.00
48806;DHT22;34625;47.176;27.548;2022-09-12T03:25:12;26.60;58.00
48806;DHT22;34625;47.176;27.548;2022-09-12T03:27:44;26.70;58.00
48806;DHT22;34625;47.176;27.548;2022-09-12T03:30:11;26.70;58.00
48806;DHT22;34625;47.176;27.548;2022-09-12T03:32:51;26.70;58.00
48806;DHT22;34625;47.176;27.548;2022-09-12T03:35:19;26.70;57.80
48806;DHT22;34625;47.176;27.548;2022-09-12T03:37:46;26.70;57.70
48806;DHT22;34625;47.176;27.548;2022-09-12T03:40:12;26.80;57.60
48806;DHT22;34625;47.176;27.548;2022-09-12T03:42:40;26.70;57.60
48806;DHT22;34625;47.176;27.548;2022-09-12T03:45:08;26.70;57.50
48806;DHT22;34625;47.176;27.548;2022-09-12T03:47:34;26.70;57.40
48806;DHT22;34625;47.176;27.548;2022-09-12T03:50:01;26.70;57.50
48806;DHT22;34625;47.176;27.548;2022-09-12T03:52:27;26.70;57.70
48806;DHT22;34625;47.176;27.548;2022-09-12T03:54:53;26.70;57.60
48806;DHT22;34625;47.176;27.548;2022-09-12T03:57:19;26.70;57.50
48806;DHT22;34625;47.176;27.548;2022-09-12T03:59:47;26.80;57.20
48806;DHT22;34625;47.176;27.548;2022-09-12T04:02:14;26.80;57.00
48806;DHT22;34625;47.176;27.548;2022-09-12T04:04:41;26.90;56.80
48806;DHT22;34625;47.176;27.548;2022-09-12T04:07:09;26.90;56.80
48806;DHT22;34625;47.176;27.548;2022-09-12T04:09:35;26.90;56.60
48806;DHT22;34625;47.176;27.548;2022-09-12T04:12:01;26.90;56.60
48806;DHT22;34625;47.176;27.548;2022-09-12T04:14:27;27.00;58.80
48806;DHT22;34625;47.176;27.548;2022-09-12T04:16:54;27.40;60.10
48806;DHT22;34625;47.176;27.548;2022-09-12T04:19:20;27.50;60.70
48806;DHT22;34625;47.176;27.548;2022-09-12T04:21:46;27.70;60.30
48806;DHT22;34625;47.176;27.548;2022-09-12T04:24:12;27.60;60.70
48806;DHT22;34625;47.176;27.548;2022-09-12T04:26:38;27.50;56.90
48806;DHT22;34625;47.176;27.548;2022-09-12T04:29:04;27.70;56.40
48806;DHT22;34625;47.176;27.548;2022-09-12T04:31:30;27.60;55.90
48806;DHT22;34625;47.176;27.548;2022-09-12T04:33:58;27.50;55.30
48806;DHT22;34625;47.176;27.548;2022-09-12T04:36:26;27.50;55.00
48806;DHT22;34625;47.176;27.548;2022-09-12T04:38:53;27.40;54.90
48806;DHT22;34625;47.176;27.548;2022-09-12T04:41:27;27.50;54.60
48806;DHT22;34625;47.176;27.548;2022-09-12T04:43:56;27.40;54.20
48806;DHT22;34625;47.176;27.548;2022-09-12T04:46:24;27.50;54.00
48806;DHT22;34625;47.176;27.548;2022-09-12T04:48:50;27.40;53.70
48806;DHT22;34625;47.176;27.548;2022-09-12T04:51:19;27.40;53.50
48806;DHT22;34625;47.176;27.548;2022-09-12T04:53:51;27.40;53.20
48806;DHT22;34625;47.176;27.548;2022-09-12T04:56:18;27.40;53.00
48806;DHT22;34625;47.176;27.548;2022-09-12T04:58:45;27.30;53.00
48806;DHT22;34625;47.176;27.548;2022-09-12T05:01:16;27.50;53.80
48806;DHT22;34625;47.176;27.548;2022-09-12T05:03:44;27.40;52.90
48806;DHT22;34625;47.176;27.548;2022-09-12T05:06:13;27.40;52.20
48806;DHT22;34625;47.176;27.548;2022-09-12T05:08:39;27.40;52.00
48806;DHT22;34625;47.176;27.548;2022-09-12T05:11:10;27.40;53.00
48806;DHT22;34625;47.176;27.548;2022-09-12T05:13:37;27.40;53.90
48806;DHT22;34625;47.176;27.548;2022-09-12T05:16:05;27.40;53.50
48806;DHT22;34625;47.176;27.548;2022-09-12T05:18:32;27.40;53.90
48806;DHT22;34625;47.176;27.548;2022-09-12T05:21:00;27.50;53.40
48806;DHT22;34625;47.176;27.548;2022-09-12T05:23:30;27.40;52.50
48806;DHT22;34625;47.176;27.548;2022-09-12T05:25:57;27.50;52.00
48806;DHT22;34625;47.176;27.548;2022-09-12T05:28:28;27.40;51.40
48806;DHT22;34625;47.176;27.548;2022-09-12T05:31:22;27.50;51.10
48806;DHT22;34625;47.176;27.548;2022-09-12T05:33:50;27.40;53.20
48806;DHT22;34625;47.176;27.548;2022-09-12T05:36:19;27.30;53.70
48806;DHT22;34625;47.176;27.548;2022-09-12T05:38:46;27.40;53.50
48806;DHT22;34625;47.176;27.548;2022-09-12T05:41:23;27.40;53.30
48806;DHT22;34625;47.176;27.548;2022-09-12T05:43:57;27.40;50.50
48806;DHT22;34625;47.176;27.548;2022-09-12T05:46:28;27.30;53.90
48806;DHT22;34625;47.176;27.548;2022-09-12T05:48:55;27.40;53.10
48806;DHT22;34625;47.176;27.548;2022-09-12T05:51:23;27.30;51.70
48806;DHT22;34625;47.176;27.548;2022-09-12T05:53:52;27.30;50.80
48806;DHT22;34625;47.176;27.548;2022-09-12T05:56:21;27.20;51.20
48806;DHT22;34625;47.176;27.548;2022-09-12T05:59:02;27.10;52.40
48806;DHT22;34625;47.176;27.548;2022-09-12T06:01:30;27.20;52.10
48806;DHT22;34625;47.176;27.548;2022-09-12T06:03:59;27.10;53.90
48806;DHT22;34625;47.176;27.548;2022-09-12T06:06:27;27.20;52.00
48806;DHT22;34625;47.176;27.548;2022-09-12T06:08:58;27.20;51.60
48806;DHT22;34625;47.176;27.548;2022-09-12T06:11:27;27.10;50.70
48806;DHT22;34625;47.176;27.548;2022-09-12T06:13:55;27.20;51.80
48806;DHT22;34625;47.176;27.548;2022-09-12T06:16:25;27.10;53.10
48806;DHT22;34625;47.176;27.548;2022-09-12T06:18:53;27.20;50.20
48806;DHT22;34625;47.176;27.548;2022-09-12T06:21:21;27.20;51.90
48806;DHT22;34625;47.176;27.548;2022-09-12T06:23:48;27.20;53.20
48806;DHT22;34625;47.176;27.548;2022-09-12T06:26:17;27.20;53.10
48806;DHT22;34625;47.176;27.548;2022-09-12T06:28:46;27.10;53.00
48806;DHT22;34625;47.176;27.548;2022-09-12T06:31:15;27.20;53.20
48806;DHT22;34625;47.176;27.548;2022-09-12T06:33:44;27.30;54.20
48806;DHT22;34625;47.176;27.548;2022-09-12T06:36:15;27.40;54.30
48806;DHT22;34625;47.176;27.548;2022-09-12T06:38:43;27.30;54.40
48806;DHT22;34625;47.176;27.548;2022-09-12T06:41:11;27.30;54.70
48806;DHT22;34625;47.176;27.548;2022-09-12T06:43:39;27.20;54.40
48806;DHT22;34625;47.176;27.548;2022-09-12T06:46:06;27.40;55.10
48806;DHT22;34625;47.176;27.548;2022-09-12T06:48:32;27.20;55.00
48806;DHT22;34625;47.176;27.548;2022-09-12T06:51:00;27.40;55.10
48806;DHT22;34625;47.176;27.548;2022-09-12T06:53:28;27.40;55.60
48806;DHT22;34625;47.176;27.548;2022-09-12T06:56:11;27.40;55.20
48806;DHT22;34625;47.176;27.548;2022-09-12T06:58:39;27.40;55.10
48806;DHT22;34625;47.176;27.548;2022-09-12T07:01:09;27.40;55.50
48806;DHT22;34625;47.176;27.548;2022-09-12T07:03:36;27.30;55.30
48806;DHT22;34625;47.176;27.548;2022-09-12T07:06:08;27.30;55.10
48806;DHT22;34625;47.176;27.548;2022-09-12T07:08:36;27.40;55.00
48806;DHT22;34625;47.176;27.548;2022-09-12T07:11:20;27.40;55.10
48806;DHT22;34625;47.176;27.548;2022-09-12T07:13:48;27.40;54.90
48806;DHT22;34625;47.176;27.548;2022-09-12T07:16:15;27.50;54.70
48806;DHT22;34625;47.176;27.548;2022-09-12T07:18:41;27.50;54.50
48806;DHT22;34625;47.176;27.548;2022-09-12T07:21:12;27.50;54.30
48806;DHT22;34625;47.176;27.548;2022-09-12T07:23:40;27.60;53.70
48806;DHT22;34625;47.176;27.548;2022-09-12T07:26:09;27.70;53.20
48806;DHT22;34625;47.176;27.548;2022-09-12T07:28:36;27.40;53.10
48806;DHT22;34625;47.176;27.548;2022-09-12T07:31:10;27.50;53.00
48806;DHT22;34625;47.176;27.548;2022-09-12T07:33:37;27.30;53.00
48806;DHT22;34625;47.176;27.548;2022-09-12T07:36:06;27.50;51.50
48806;DHT22;34625;47.176;27.548;2022-09-12T07:38:33;27.50;52.50
48806;DHT22;34625;47.176;27.548;2022-09-12T07:40:59;27.50;52.30
48806;DHT22;34625;47.176;27.548;2022-09-12T07:43:26;27.50;52.00
48806;DHT22;34625;47.176;27.548;2022-09-12T07:45:56;27.60;51.70
48806;DHT22;34625;47.176;27.548;2022-09-12T07:48:22;27.40;51.60
48806;DHT22;34625;47.176;27.548;2022-09-12T07:50:58;27.50;51.80
48806;DHT22;34625;47.176;27.548;2022-09-12T07:53:47;27.40;52.00
48806;DHT22;34625;47.176;27.548;2022-09-12T07:56:12;27.40;52.30
48806;DHT22;34625;47.176;27.548;2022-09-12T07:58:39;27.50;52.40
48806;DHT22;34625;47.176;27.548;2022-09-12T08:01:12;27.50;52.30
48806;DHT22;34625;47.176;27.548;2022-09-12T08:03:40;27.40;51.70
48806;DHT22;34625;47.176;27.548;2022-09-12T08:06:15;27.50;53.10
48806;DHT22;34625;47.176;27.548;2022-09-12T08:08:43;27.40;52.00
48806;DHT22;34625;47.176;27.548;2022-09-12T08:11:11;27.40;52.20
48806;DHT22;34625;47.176;27.548;2022-09-12T08:13:39;27.40;52.10
48806;DHT22;34625;47.176;27.548;2022-09-12T08:16:13;27.50;51.90
48806;DHT22;34625;47.176;27.548;2022-09-12T08:18:40;27.40;51.70
48806;DHT22;34625;47.176;27.548;2022-09-12T08:21:14;27.30;51.50
48806;DHT22;34625;47.176;27.548;2022-09-12T08:23:41;27.40;51.30
48806;DHT22;34625;47.176;27.548;2022-09-12T08:26:09;27.40;51.00
48806;DHT22;34625;47.176;27.548;2022-09-12T08:28:36;27.40;50.80
48806;DHT22;34625;47.176;27.548;2022-09-12T08:31:07;27.50;50.20
48806;DHT22;34625;47.176;27.548;2022-09-12T08:33:33;27.40;50.10
48806;DHT22;34625;47.176;27.548;2022-09-12T08:36:03;27.50;50.10
48806;DHT22;34625;47.176;27.548;2022-09-12T08:38:31;27.30;49.70
48806;DHT22;34625;47.176;27.548;2022-09-12T08:41:35;27.30;49.70
48806;DHT22;34625;47.176;27.548;2022-09-12T08:52:54;27.40;49.90
48806;DHT22;34625;47.176;27.548;2022-09-12T08:55:33;27.30;49.70
48806;DHT22;34625;47.176;27.548;2022-09-12T08:58:23;27.40;48.60
48806;DHT22;34625;47.176;27.548;2022-09-12T09:15:22;27.70;49.80
48806;DHT22;34625;47.176;27.548;2022-09-12T09:18:03;27.80;49.40
48806;DHT22;34625;47.176;27.548;2022-09-12T09:20:45;27.90;50.50
48806;DHT22;34625;47.176;27.548;2022-09-12T09:28:25;28.30;53.60
48806;DHT22;34625;47.176;27.548;2022-09-12T09:30:55;28.40;53.30
48806;DHT22;34625;47.176;27.548;2022-09-12T09:33:23;28.70;57.90
48806;DHT22;34625;47.176;27.548;2022-09-12T09:44:32;28.40;47.00
48806;DHT22;34625;47.176;27.548;2022-09-12T09:46:59;28.40;49.10
48806;DHT22;34625;47.176;27.548;2022-09-12T09:49:31;28.70;50.40
48806;DHT22;34625;47.176;27.548;2022-09-12T09:51:58;29.00;52.70
48806;DHT22;34625;47.176;27.548;2022-09-12T09:54:48;29.40;52.20
48806;DHT22;34625;47.176;27.548;2022-09-12T10:05:31;29.10;49.80
48806;DHT22;34625;47.176;27.548;2022-09-12T10:07:58;29.50;50.60
48806;DHT22;34625;47.176;27.548;2022-09-12T10:10:24;29.70;49.20
48806;DHT22;34625;47.176;27.548;2022-09-12T10:12:51;29.80;47.50
48806;DHT22;34625;47.176;27.548;2022-09-12T10:15:30;29.60;45.40
48806;DHT22;34625;47.176;27.548;2022-09-12T10:17:57;29.40;44.70
48806;DHT22;34625;47.176;27.548;2022-09-12T10:23:14;29.20;44.10
48806;DHT22;34625;47.176;27.548;2022-09-12T10:25:47;29.10;44.50
48806;DHT22;34625;47.176;27.548;2022-09-12T10:28:24;29.10;44.20
48806;DHT22;34625;47.176;27.548;2022-09-12T10:30:54;28.90;43.60
48806;DHT22;34625;47.176;27.548;2022-09-12T10:33:22;28.80;43.50
48806;DHT22;34625;47.176;27.548;2022-09-12T10:35:52;28.80;43.40
48806;DHT22;34625;47.176;27.548;2022-09-12T10:38:24;28.80;43.70
48806;DHT22;34625;47.176;27.548;2022-09-12T10:45:51;28.70;43.90
48806;DHT22;34625;47.176;27.548;2022-09-12T10:48:30;28.60;44.30
48806;DHT22;34625;47.176;27.548;2022-09-12T10:51:00;28.50;45.00
48806;DHT22;34625;47.176;27.548;2022-09-12T10:53:30;28.40;45.10
48806;DHT22;34625;47.176;27.548;2022-09-12T10:56:18;28.40;45.30
48806;DHT22;34625;47.176;27.548;2022-09-12T11:01:48;28.20;45.50
48806;DHT22;34625;47.176;27.548;2022-09-12T11:18:37;28.00;44.10
48806;DHT22;34625;47.176;27.548;2022-09-12T11:21:47;27.90;44.80
48806;DHT22;34625;47.176;27.548;2022-09-12T11:29:49;27.90;48.80
48806;DHT22;34625;47.176;27.548;2022-09-12T11:35:18;27.90;47.70
48806;DHT22;34625;47.176;27.548;2022-09-12T11:42:46;28.00;44.40
48806;DHT22;34625;47.176;27.548;2022-09-12T11:45:39;27.90;44.10
48806;DHT22;34625;47.176;27.548;2022-09-12T11:48:09;27.90;43.20
48806;DHT22;34625;47.176;27.548;2022-09-12T11:50:37;27.90;43.30
48806;DHT22;34625;47.176;27.548;2022-09-12T11:53:18;28.00;43.60
48806;DHT22;34625;47.176;27.548;2022-09-12T11:55:54;27.80;43.30
48806;DHT22;34625;47.176;27.548;2022-09-12T11:58:23;27.90;43.30
48806;DHT22;34625;47.176;27.548;2022-09-12T12:00:54;27.80;43.00
48806;DHT22;34625;47.176;27.548;2022-09-12T12:03:36;27.80;43.30
48806;DHT22;34625;47.176;27.548;2022-09-12T12:06:20;27.90;43.20
48806;DHT22;34625;47.176;27.548;2022-09-12T12:08:47;27.90;42.70
48806;DHT22;34625;47.176;27.548;2022-09-12T12:11:37;27.90;43.50
48806;DHT22;34625;47.176;27.548;2022-09-12T12:14:17;27.90;43.50
48806;DHT22;34625;47.176;27.548;2022-09-12T12:16:45;27.80;43.40
48806;DHT22;34625;47.176;27.548;2022-09-12T12:21:47;27.80;43.20
48806;DHT22;34625;47.176;27.548;2022-09-12T12:24:22;28.00;43.40
48806;DHT22;34625;47.176;27.548;2022-09-12T12:27:01;27.90;42.90
48806;DHT22;34625;47.176;27.548;2022-09-12T12:47:40;27.80;43.00
48806;DHT22;34625;47.176;27.548;2022-09-12T12:57:49;27.80;44.70
48806;DHT22;34625;47.176;27.548;2022-09-12T13:03:08;27.80;44.90
48806;DHT22;34625;47.176;27.548;2022-09-12T13:05:47;27.80;44.30
48806;DHT22;34625;47.176;27.548;2022-09-12T13:11:00;27.80;45.40
48806;DHT22;34625;47.176;27.548;2022-09-12T13:13:41;27.70;44.30
48806;DHT22;34625;47.176;27.548;2022-09-12T13:16:11;27.70;45.20
48806;DHT22;34625;47.176;27.548;2022-09-12T13:18:53;27.60;44.80
48806;DHT22;34625;47.176;27.548;2022-09-12T13:21:20;27.70;45.00
48806;DHT22;34625;47.176;27.548;2022-09-12T13:24:10;27.70;45.20
48806;DHT22;34625;47.176;27.548;2022-09-12T13:26:43;27.70;45.80
48806;DHT22;34625;47.176;27.548;2022-09-12T13:29:15;27.70;45.80
48806;DHT22;34625;47.176;27.548;2022-09-12T13:31:46;27.60;46.10
48806;DHT22;34625;47.176;27.548;2022-09-12T13:34:21;27.60;45.90
48806;DHT22;34625;47.176;27.548;2022-09-12T13:37:05;27.60;46.00
48806;DHT22;34625;47.176;27.548;2022-09-12T13:40:00;27.60;46.00
48806;DHT22;34625;47.176;27.548;2022-09-12T13:45:20;27.70;46.40
48806;DHT22;34625;47.176;27.548;2022-09-12T13:48:00;27.70;46.40
48806;DHT22;34625;47.176;27.548;2022-09-12T13:50:36;27.70;46.60
48806;DHT22;34625;47.176;27.548;2022-09-12T13:53:08;27.70;46.20
48806;DHT22;34625;47.176;27.548;2022-09-12T13:55:40;27.60;46.70
48806;DHT22;34625;47.176;27.548;2022-09-12T14:00:45;27.60;45.90
48806;DHT22;34625;47.176;27.548;2022-09-12T14:03:33;27.60;46.90
48806;DHT22;34625;47.176;27.548;2022-09-12T14:06:18;27.70;46.40
48806;DHT22;34625;47.176;27.548;2022-09-12T14:08:46;27.70;46.30
48806;DHT22;34625;47.176;27.548;2022-09-12T14:11:22;27.70;47.40
48806;DHT22;34625;47.176;27.548;2022-09-12T14:13:49;27.50;46.80
48806;DHT22;34625;47.176;27.548;2022-09-12T14:16:18;27.50;47.00
48806;DHT22;34625;47.176;27.548;2022-09-12T14:18:47;27.50;47.50
48806;DHT22;34625;47.176;27.548;2022-09-12T14:21:34;27.40;47.60
48806;DHT22;34625;47.176;27.548;2022-09-12T14:24:02;27.40;47.70
48806;DHT22;34625;47.176;27.548;2022-09-12T14:26:33;27.30;47.80
48806;DHT22;34625;47.176;27.548;2022-09-12T14:29:01;27.40;48.00
48806;DHT22;34625;47.176;27.548;2022-09-12T14:31:37;27.30;48.20
48806;DHT22;34625;47.176;27.548;2022-09-12T14:34:08;27.30;48.20
48806;DHT22;34625;47.176;27.548;2022-09-12T14:36:41;27.30;48.30
48806;DHT22;34625;47.176;27.548;2022-09-12T14:42:17;27.40;48.40
48806;DHT22;34625;47.176;27.548;2022-09-12T14:44:57;27.50;48.50
48806;DHT22;34625;47.176;27.548;2022-09-12T14:47:26;27.50;48.60
48806;DHT22;34625;47.176;27.548;2022-09-12T14:49:53;27.40;48.40
48806;DHT22;34625;47.176;27.548;2022-09-12T14:52:28;27.50;48.30
48806;DHT22;34625;47.176;27.548;2022-09-12T14:55:00;27.50;48.60
48806;DHT22;34625;47.176;27.548;2022-09-12T14:57:32;27.50;48.70
48806;DHT22;34625;47.176;27.548;2022-09-12T15:02:43;27.50;48.90
48806;DHT22;34625;47.176;27.548;2022-09-12T15:15:31;27.90;48.20
48806;DHT22;34625;47.176;27.548;2022-09-12T15:17:57;27.90;53.30
48806;DHT22;34625;47.176;27.548;2022-09-12T15:20:23;28.00;49.10
48806;DHT22;34625;47.176;27.548;2022-09-12T15:22:50;27.90;49.20
48806;DHT22;34625;47.176;27.548;2022-09-12T15:25:16;27.80;49.20
48806;DHT22;34625;47.176;27.548;2022-09-12T15:27:44;27.90;49.10
48806;DHT22;34625;47.176;27.548;2022-09-12T15:30:11;27.90;52.00
48806;DHT22;34625;47.176;27.548;2022-09-12T15:32:39;28.00;52.80
48806;DHT22;34625;47.176;27.548;2022-09-12T15:35:19;28.10;51.20
48806;DHT22;34625;47.176;27.548;2022-09-12T15:37:47;28.00;51.00
48806;DHT22;34625;47.176;27.548;2022-09-12T15:40:14;28.00;49.30
48806;DHT22;34625;47.176;27.548;2022-09-12T15:42:41;27.90;50.10
48806;DHT22;34625;47.176;27.548;2022-09-12T15:45:27;27.90;49.80
48806;DHT22;34625;47.176;27.548;2022-09-12T15:47:54;27.80;50.20
48806;DHT22;34625;47.176;27.548;2022-09-12T15:50:20;27.70;50.00
48806;DHT22;34625;47.176;27.548;2022-09-12T15:52:47;27.70;50.00
48806;DHT22;34625;47.176;27.548;2022-09-12T15:55:31;27.50;50.80
48806;DHT22;34625;47.176;27.548;2022-09-12T15:57:58;27.70;52.60
48806;DHT22;34625;47.176;27.548;2022-09-12T16:00:25;28.10;52.10
48806;DHT22;34625;47.176;27.548;2022-09-12T16:02:52;28.50;51.00
48806;DHT22;34625;47.176;27.548;2022-09-12T16:05:23;28.60;50.70
48806;DHT22;34625;47.176;27.548;2022-09-12T16:07:52;28.60;50.80
48806;DHT22;34625;47.176;27.548;2022-09-12T16:10:21;28.70;51.10
48806;DHT22;34625;47.176;27.548;2022-09-12T16:12:48;28.60;51.40
48806;DHT22;34625;47.176;27.548;2022-09-12T16:15:20;28.60;51.00
48806;DHT22;34625;47.176;27.548;2022-09-12T16:17:46;28.70;51.10
48806;DHT22;34625;47.176;27.548;2022-09-12T16:20:13;28.60;49.30
48806;DHT22;34625;47.176;27.548;2022-09-12T16:22:40;28.60;49.50
48806;DHT22;34625;47.176;27.548;2022-09-12T16:25:06;28.40;50.00
48806;DHT22;34625;47.176;27.548;2022-09-12T16:27:33;28.30;49.60
48806;DHT22;34625;47.176;27.548;2022-09-12T16:30:00;28.30;49.80
48806;DHT22;34625;47.176;27.548;2022-09-12T16:32:25;28.40;50.20
48806;DHT22;34625;47.176;27.548;2022-09-12T16:34:51;28.20;49.80
48806;DHT22;34625;47.176;27.548;2022-09-12T16:37:18;28.20;49.20
48806;DHT22;34625;47.176;27.548;2022-09-12T16:39:44;28.20;49.20
48806;DHT22;34625;47.176;27.548;2022-09-12T16:42:10;28.00;49.80
48806;DHT22;34625;47.176;27.548;2022-09-12T16:44:36;28.00;48.40
48806;DHT22;34625;47.176;27.548;2022-09-12T16:47:02;28.00;47.10
48806;DHT22;34625;47.176;27.548;2022-09-12T16:49:28;27.90;47.10
48806;DHT22;34625;47.176;27.548;2022-09-12T16:51:54;27.70;49.30
48806;DHT22;34625;47.176;27.548;2022-09-12T16:54:20;27.60;48.20
48806;DHT22;34625;47.176;27.548;2022-09-12T16:56:46;27.70;49.40
48806;DHT22;34625;47.176;27.548;2022-09-12T16:59:14;27.60;49.50
48806;DHT22;34625;47.176;27.548;2022-09-12T17:01:41;27.60;47.90
48806;DHT22;34625;47.176;27.548;2022-09-12T17:04:10;27.70;50.80
48806;DHT22;34625;47.176;27.548;2022-09-12T17:06:36;27.60;51.80
48806;DHT22;34625;47.176;27.548;2022-09-12T17:09:02;27.50;50.60
48806;DHT22;34625;47.176;27.548;2022-09-12T17:11:35;27.60;50.20
48806;DHT22;34625;47.176;27.548;2022-09-12T17:14:03;27.60;50.50
48806;DHT22;34625;47.176;27.548;2022-09-12T17:16:35;27.60;50.90
48806;DHT22;34625;47.176;27.548;2022-09-12T17:19:02;27.70;47.60
48806;DHT22;34625;47.176;27.548;2022-09-12T17:21:28;27.60;49.40
48806;DHT22;34625;47.176;27.548;2022-09-12T17:23:54;27.50;51.10
48806;DHT22;34625;47.176;27.548;2022-09-12T17:26:20;27.50;51.00
48806;DHT22;34625;47.176;27.548;2022-09-12T17:28:47;27.50;50.50
48806;DHT22;34625;47.176;27.548;2022-09-12T17:31:13;27.50;48.80
48806;DHT22;34625;47.176;27.548;2022-09-12T17:33:40;27.40;46.80
48806;DHT22;34625;47.176;27.548;2022-09-12T17:36:11;27.30;52.00
48806;DHT22;34625;47.176;27.548;2022-09-12T17:38:40;27.40;50.90
48806;DHT22;34625;47.176;27.548;2022-09-12T17:41:12;27.60;48.80
48806;DHT22;34625;47.176;27.548;2022-09-12T17:43:45;27.40;52.00
48806;DHT22;34625;47.176;27.548;2022-09-12T17:46:12;27.50;48.40
48806;DHT22;34625;47.176;27.548;2022-09-12T17:48:38;27.40;51.40
48806;DHT22;34625;47.176;27.548;2022-09-12T17:53:34;27.50;50.40
48806;DHT22;34625;47.176;27.548;2022-09-12T17:56:04;27.50;50.70
48806;DHT22;34625;47.176;27.548;2022-09-12T17:58:31;27.40;50.80
48806;DHT22;34625;47.176;27.548;2022-09-12T18:01:13;27.50;50.60
48806;DHT22;34625;47.176;27.548;2022-09-12T18:03:59;27.50;50.30
48806;DHT22;34625;47.176;27.548;2022-09-12T18:06:27;27.50;48.80
48806;DHT22;34625;47.176;27.548;2022-09-12T18:08:53;27.50;49.00
48806;DHT22;34625;47.176;27.548;2022-09-12T18:11:19;27.50;49.60
48806;DHT22;34625;47.176;27.548;2022-09-12T18:13:45;27.40;49.60
48806;DHT22;34625;47.176;27.548;2022-09-12T18:16:12;27.50;50.20
48806;DHT22;34625;47.176;27.548;2022-09-12T18:18:38;27.30;50.00
48806;DHT22;34625;47.176;27.548;2022-09-12T18:21:06;27.30;51.20
48806;DHT22;34625;47.176;27.548;2022-09-12T18:23:33;27.40;50.40
48806;DHT22;34625;47.176;27.548;2022-09-12T18:26:01;27.40;51.10
48806;DHT22;34625;47.176;27.548;2022-09-12T18:28:27;27.40;51.40
48806;DHT22;34625;47.176;27.548;2022-09-12T18:30:53;27.40;51.10
48806;DHT22;34625;47.176;27.548;2022-09-12T18:33:19;27.30;51.20
48806;DHT22;34625;47.176;27.548;2022-09-12T18:35:45;27.30;51.10
48806;DHT22;34625;47.176;27.548;2022-09-12T18:38:11;27.40;50.70
48806;DHT22;34625;47.176;27.548;2022-09-12T18:40:37;27.30;51.10
48806;DHT22;34625;47.176;27.548;2022-09-12T18:43:03;27.30;51.40
48806;DHT22;34625;47.176;27.548;2022-09-12T18:45:30;27.30;51.50